Time;durP1;ratioP1;P1;durP2;ratioP2;P2;SDS_P1;SDS_P2;PMS_P1;PMS_P2;Temp;Humidity;BMP_temperature;BMP_pressure;BME280_temperature;BME280_humidity;BME280_pressure;Samples;Min_cycle;Max_cycle;Signal;HPM_P1;HPM_P2
2022/04/24 00:00:11;;;;;;;;;26.75;24.50;;;;;;;;5113932;27;51054;-58
2022/04/24 00:02:36;;;;;;;;;28.00;26.50;;;;;;;;5111954;27;51944;-56
2022/04/24 00:05:02;;;;;;;;;27.00;27.00;;;;;;;;5111442;27;52654;-56
2022/04/24 00:07:27;;;;;;;;;27.50;25.50;;;;;;;;5074126;27;51199;-57
2022/04/24 00:09:52;;;;;;;;;23.75;21.75;;;;;;;;5104185;27;50993;-56
2022/04/24 00:12:18;;;;;;;;;22.25;21.50;;;;;;;;5094170;27;51107;-56
2022/04/24 00:14:46;;;;;;;;;18.25;17.50;;;;;;;;5112659;27;50900;-57
2022/04/24 00:17:12;;;;;;;;;25.25;23.25;;;;;;;;5108145;27;50977;-56
2022/04/24 00:19:37;;;;;;;;;21.00;21.00;;;;;;;;5109906;27;51324;-55
2022/04/24 00:22:03;;;;;;;;;21.00;21.00;;;;;;;;5108541;27;50987;-55
2022/04/24 00:24:28;;;;;;;;;19.00;18.75;;;;;;;;5112750;27;51896;-56
2022/04/24 00:26:54;;;;;;;;;19.25;17.00;;;;;;;;5111920;27;51201;-56
2022/04/24 00:29:19;;;;;;;;;19.50;19.00;;;;;;;;5114955;27;51004;-56
2022/04/24 00:31:45;;;;;;;;;22.00;21.25;;;;;;;;5103498;27;51030;-56
2022/04/24 00:34:10;;;;;;;;;19.50;19.00;;;;;;;;5089658;27;52942;-56
2022/04/24 00:36:35;;;;;;;;;22.25;22.00;;;;;;;;5106473;27;50985;-55
2022/04/24 00:39:00;;;;;;;;;19.25;18.00;;;;;;;;5113521;27;51054;-57
2022/04/24 00:41:25;;;;;;;;;24.50;23.25;;;;;;;;5112009;27;51350;-56
2022/04/24 00:43:52;;;;;;;;;19.25;18.75;;;;;;;;5113022;27;51035;-56
2022/04/24 00:46:32;;;;;;;;;21.50;21.00;;;;;;;;5110859;27;52245;-54
2022/04/24 00:48:58;;;;;;;;;20.75;19.25;;;;;;;;5100299;27;51342;-57
2022/04/24 00:51:23;;;;;;;;;20.50;20.00;;;;;;;;5104335;27;51117;-58
2022/04/24 00:53:48;;;;;;;;;66.75;53.75;;;;;;;;5112956;27;51003;-57
2022/04/24 00:56:13;;;;;;;;;25.25;23.25;;;;;;;;5111604;27;50889;-56
2022/04/24 00:58:39;;;;;;;;;22.00;21.25;;;;;;;;5110094;27;51145;-57
2022/04/24 01:01:04;;;;;;;;;22.00;21.75;;;;;;;;5109641;27;51116;-57
2022/04/24 01:03:30;;;;;;;;;18.25;18.25;;;;;;;;5111640;27;52096;-57
2022/04/24 01:05:55;;;;;;;;;24.50;22.50;;;;;;;;5105996;27;51157;-56
2022/04/24 01:08:20;;;;;;;;;21.25;21.25;;;;;;;;5104609;27;51108;-55
2022/04/24 01:10:46;;;;;;;;;19.50;19.00;;;;;;;;5106520;27;51114;-54
2022/04/24 01:13:11;;;;;;;;;23.00;22.00;;;;;;;;5112609;27;51912;-54
2022/04/24 01:15:36;;;;;;;;;23.00;22.50;;;;;;;;5110375;27;51206;-57
2022/04/24 01:18:01;;;;;;;;;23.75;21.75;;;;;;;;5101845;27;51046;-58
2022/04/24 01:20:26;;;;;;;;;22.75;21.75;;;;;;;;5111806;27;51157;-57
2022/04/24 01:22:52;;;;;;;;;20.25;19.00;;;;;;;;5112439;27;51022;-56
2022/04/24 01:25:17;;;;;;;;;22.75;21.50;;;;;;;;5111904;27;51016;-57
2022/04/24 01:27:43;;;;;;;;;21.75;21.25;;;;;;;;5108676;27;51148;-57
2022/04/24 01:30:08;;;;;;;;;20.00;19.00;;;;;;;;5106269;27;51140;-56
2022/04/24 01:32:38;;;;;;;;;17.25;17.25;;;;;;;;5076034;27;52564;-58
2022/04/24 01:35:04;;;;;;;;;18.75;18.75;;;;;;;;5102620;27;51043;-59
2022/04/24 01:37:29;;;;;;;;;20.25;18.75;;;;;;;;5079462;27;51203;-56
2022/04/24 01:39:55;;;;;;;;;20.75;20.25;;;;;;;;5109741;27;51331;-56
2022/04/24 01:42:20;;;;;;;;;22.25;21.75;;;;;;;;5107919;27;51645;-55
2022/04/24 01:44:46;;;;;;;;;19.00;18.50;;;;;;;;5086642;27;51028;-56
2022/04/24 01:47:11;;;;;;;;;20.75;20.25;;;;;;;;5103393;27;51132;-56
2022/04/24 01:49:36;;;;;;;;;20.00;20.00;;;;;;;;5108965;27;51448;-55
2022/04/24 01:52:03;;;;;;;;;21.50;19.75;;;;;;;;5108937;27;51169;-55
2022/04/24 01:54:29;;;;;;;;;19.75;18.75;;;;;;;;5116192;27;51058;-56
2022/04/24 01:56:54;;;;;;;;;19.25;19.25;;;;;;;;5109673;27;51105;-54
2022/04/24 01:59:19;;;;;;;;;20.00;19.50;;;;;;;;5089292;27;51346;-56
2022/04/24 02:01:44;;;;;;;;;20.00;18.50;;;;;;;;5110763;27;52776;-56
2022/04/24 02:04:09;;;;;;;;;19.25;19.00;;;;;;;;5111932;27;51078;-58
2022/04/24 02:06:35;;;;;;;;;22.25;19.75;;;;;;;;5109088;27;50908;-57
2022/04/24 02:09:00;;;;;;;;;22.75;21.25;;;;;;;;5117417;27;51019;-56
2022/04/24 02:11:25;;;;;;;;;19.00;17.50;;;;;;;;5113427;27;51069;-56
2022/04/24 02:13:50;;;;;;;;;19.50;19.00;;;;;;;;5114790;27;50886;-56
2022/04/24 02:16:15;;;;;;;;;20.00;19.50;;;;;;;;5110529;27;51182;-54
2022/04/24 02:18:41;;;;;;;;;19.25;19.00;;;;;;;;5113680;27;51025;-53
2022/04/24 02:21:06;;;;;;;;;20.75;19.00;;;;;;;;5108278;27;52105;-53
2022/04/24 02:23:32;;;;;;;;;18.00;18.00;;;;;;;;5112955;27;51172;-56
2022/04/24 02:25:57;;;;;;;;;21.50;20.25;;;;;;;;5113440;27;52694;-54
2022/04/24 02:28:23;;;;;;;;;21.50;20.50;;;;;;;;5115811;27;51297;-55
2022/04/24 02:30:48;;;;;;;;;18.75;18.00;;;;;;;;5095421;27;52006;-54
2022/04/24 02:33:14;;;;;;;;;19.25;17.50;;;;;;;;5115621;27;51194;-55
2022/04/24 02:35:39;;;;;;;;;21.75;20.00;;;;;;;;5111464;27;51356;-56
2022/04/24 02:38:04;;;;;;;;;18.50;18.00;;;;;;;;5114125;27;51098;-56
2022/04/24 02:40:29;;;;;;;;;19.25;19.25;;;;;;;;5085458;27;51040;-56
2022/04/24 02:42:55;;;;;;;;;17.00;17.00;;;;;;;;5115344;27;51024;-55
2022/04/24 02:45:20;;;;;;;;;18.75;17.25;;;;;;;;5115060;27;51127;-55
2022/04/24 02:47:46;;;;;;;;;20.25;16.75;;;;;;;;5094874;27;51243;-57
2022/04/24 02:50:11;;;;;;;;;17.00;16.50;;;;;;;;5113235;27;52702;-56
2022/04/24 02:52:53;;;;;;;;;23.00;22.00;;;;;;;;5113483;27;50994;-53
2022/04/24 02:55:19;;;;;;;;;19.00;19.00;;;;;;;;5115212;27;51013;-56
2022/04/24 02:57:44;;;;;;;;;19.25;18.75;;;;;;;;5100377;27;51480;-55
2022/04/24 03:00:10;;;;;;;;;21.50;19.75;;;;;;;;5114082;27;51009;-57
2022/04/24 03:02:42;;;;;;;;;20.75;19.50;;;;;;;;5110794;27;51263;-54
2022/04/24 03:05:12;;;;;;;;;19.75;19.00;;;;;;;;5101370;27;51223;-55
2022/04/24 03:07:37;;;;;;;;;20.50;19.75;;;;;;;;5101404;27;51183;-55
2022/04/24 03:10:03;;;;;;;;;17.50;17.50;;;;;;;;5111864;27;53274;-54
2022/04/24 03:12:29;;;;;;;;;27.00;26.75;;;;;;;;5084094;27;50953;-55
2022/04/24 03:14:54;;;;;;;;;19.75;19.75;;;;;;;;5112470;27;50896;-55
2022/04/24 03:17:19;;;;;;;;;18.75;18.00;;;;;;;;5112935;27;50936;-56
2022/04/24 03:19:45;;;;;;;;;18.00;18.00;;;;;;;;5115457;27;50924;-54
2022/04/24 03:22:10;;;;;;;;;19.00;17.75;;;;;;;;5111607;27;51085;-56
2022/04/24 03:24:35;;;;;;;;;20.00;19.75;;;;;;;;5116082;27;51213;-54
2022/04/24 03:27:00;;;;;;;;;17.75;17.00;;;;;;;;5106441;27;51248;-52
2022/04/24 03:29:26;;;;;;;;;17.75;17.00;;;;;;;;5114138;27;51999;-54
2022/04/24 03:31:51;;;;;;;;;18.00;18.00;;;;;;;;5108100;27;51006;-56
2022/04/24 03:34:17;;;;;;;;;21.25;19.00;;;;;;;;5108801;27;51197;-57
2022/04/24 03:36:42;;;;;;;;;18.50;18.00;;;;;;;;5112189;27;51316;-57
2022/04/24 03:39:08;;;;;;;;;15.25;14.25;;;;;;;;5110010;27;51193;-57
2022/04/24 03:41:33;;;;;;;;;21.50;19.25;;;;;;;;5112576;27;51186;-54
2022/04/24 03:43:58;;;;;;;;;18.75;17.75;;;;;;;;5113581;27;51170;-55
2022/04/24 03:46:23;;;;;;;;;22.75;21.00;;;;;;;;5111449;27;51409;-56
2022/04/24 03:48:49;;;;;;;;;21.75;20.50;;;;;;;;5113563;27;51822;-56
2022/04/24 03:51:14;;;;;;;;;22.50;22.50;;;;;;;;5113378;27;51125;-56
2022/04/24 03:53:39;;;;;;;;;18.25;17.25;;;;;;;;5115042;27;51151;-56
2022/04/24 03:56:04;;;;;;;;;19.00;19.00;;;;;;;;5106733;27;51158;-57
2022/04/24 03:58:30;;;;;;;;;20.25;18.75;;;;;;;;5111500;27;51079;-56
2022/04/24 04:00:55;;;;;;;;;22.25;19.50;;;;;;;;5114320;27;51196;-55
2022/04/24 04:03:20;;;;;;;;;17.00;17.00;;;;;;;;5114221;27;51118;-57
2022/04/24 04:05:46;;;;;;;;;19.25;18.50;;;;;;;;5113005;27;51062;-56
2022/04/24 04:08:11;;;;;;;;;18.75;18.75;;;;;;;;5097647;27;51761;-56
2022/04/24 04:10:36;;;;;;;;;22.00;20.00;;;;;;;;5102270;27;51000;-56
2022/04/24 04:13:06;;;;;;;;;24.25;22.00;;;;;;;;5113370;27;51072;-57
2022/04/24 04:15:32;;;;;;;;;19.50;19.50;;;;;;;;5107819;27;51024;-57
2022/04/24 04:17:58;;;;;;;;;28.00;25.75;;;;;;;;5113465;27;52063;-56
2022/04/24 04:20:23;;;;;;;;;20.50;20.50;;;;;;;;5113167;27;51157;-56
2022/04/24 04:22:51;;;;;;;;;22.25;22.00;;;;;;;;5112449;27;51150;-56
2022/04/24 04:25:17;;;;;;;;;18.75;17.50;;;;;;;;5110623;27;51233;-57
2022/04/24 04:27:42;;;;;;;;;22.00;22.00;;;;;;;;5113435;27;51808;-58
2022/04/24 04:30:08;;;;;;;;;23.25;22.25;;;;;;;;5111982;27;50870;-55
2022/04/24 04:32:34;;;;;;;;;21.25;21.25;;;;;;;;5073586;27;51173;-55
2022/04/24 04:34:59;;;;;;;;;20.75;19.00;;;;;;;;5105929;27;51059;-58
2022/04/24 04:37:24;;;;;;;;;22.00;21.75;;;;;;;;5111240;27;52946;-56
2022/04/24 04:39:49;;;;;;;;;21.50;20.50;;;;;;;;5114427;27;50942;-57
2022/04/24 04:42:15;;;;;;;;;21.75;21.75;;;;;;;;5104616;27;51049;-57
2022/04/24 04:44:40;;;;;;;;;17.75;17.75;;;;;;;;5115207;27;51832;-54
2022/04/24 04:47:06;;;;;;;;;21.25;21.00;;;;;;;;5108973;27;51950;-56
2022/04/24 04:49:31;;;;;;;;;25.25;22.50;;;;;;;;5113541;27;50807;-55
2022/04/24 04:51:56;;;;;;;;;21.75;20.25;;;;;;;;5104107;27;51059;-55
2022/04/24 04:54:21;;;;;;;;;22.50;20.75;;;;;;;;5114480;27;51442;-56
2022/04/24 04:56:47;;;;;;;;;24.00;22.25;;;;;;;;5111067;27;51944;-56
2022/04/24 04:59:12;;;;;;;;;21.25;20.00;;;;;;;;5114518;27;50941;-54
2022/04/24 05:01:37;;;;;;;;;20.50;19.50;;;;;;;;5111917;27;50910;-57
2022/04/24 05:04:02;;;;;;;;;22.50;21.00;;;;;;;;5111639;27;51230;-54
2022/04/24 05:06:28;;;;;;;;;19.75;19.00;;;;;;;;5104750;27;51912;-55
2022/04/24 05:08:53;;;;;;;;;19.00;18.75;;;;;;;;5106697;27;52004;-56
2022/04/24 05:11:18;;;;;;;;;23.50;20.75;;;;;;;;5096913;27;51591;-54
2022/04/24 05:13:43;;;;;;;;;23.00;22.50;;;;;;;;5114636;27;51391;-57
2022/04/24 05:16:09;;;;;;;;;25.25;22.25;;;;;;;;5108708;27;51690;-56
2022/04/24 05:18:34;;;;;;;;;22.00;19.00;;;;;;;;5105039;27;51053;-57
2022/04/24 05:20:59;;;;;;;;;23.25;20.75;;;;;;;;5096793;27;51132;-56
2022/04/24 05:23:24;;;;;;;;;21.75;20.50;;;;;;;;5112990;27;51189;-56
2022/04/24 05:25:50;;;;;;;;;26.00;20.25;;;;;;;;5111240;27;51999;-56
2022/04/24 05:28:15;;;;;;;;;23.25;23.25;;;;;;;;5111432;27;51020;-55
2022/04/24 05:30:40;;;;;;;;;23.00;22.25;;;;;;;;5111154;27;51041;-57
2022/04/24 05:33:05;;;;;;;;;26.50;23.00;;;;;;;;5100327;27;51110;-56
2022/04/24 05:35:31;;;;;;;;;20.50;20.50;;;;;;;;5088812;27;52643;-56
2022/04/24 05:37:56;;;;;;;;;23.00;20.50;;;;;;;;5112445;27;50952;-57
2022/04/24 05:40:21;;;;;;;;;23.00;22.25;;;;;;;;5108658;27;50936;-54
2022/04/24 05:42:49;;;;;;;;;23.50;22.50;;;;;;;;5111850;27;51054;-56
2022/04/24 05:45:18;;;;;;;;;25.25;22.00;;;;;;;;5112206;27;51975;-56
2022/04/24 05:47:43;;;;;;;;;26.75;25.25;;;;;;;;5110815;27;51062;-55
2022/04/24 05:50:08;;;;;;;;;23.75;21.50;;;;;;;;5111792;27;51590;-55
2022/04/24 05:52:34;;;;;;;;;23.25;22.00;;;;;;;;5109118;27;51166;-54
2022/04/24 05:54:59;;;;;;;;;22.25;21.75;;;;;;;;5113449;27;51842;-56
2022/04/24 05:57:24;;;;;;;;;23.25;22.00;;;;;;;;5104785;27;50974;-57
2022/04/24 05:59:49;;;;;;;;;24.25;24.25;;;;;;;;5090509;27;50973;-57
2022/04/24 06:02:14;;;;;;;;;23.00;22.75;;;;;;;;5109791;27;51253;-55
2022/04/24 06:04:40;;;;;;;;;28.75;27.50;;;;;;;;5112610;27;51869;-56
2022/04/24 06:07:05;;;;;;;;;25.75;23.50;;;;;;;;5107508;27;51121;-56
2022/04/24 06:09:30;;;;;;;;;27.75;26.75;;;;;;;;5113753;27;51097;-57
2022/04/24 06:11:58;;;;;;;;;24.25;24.00;;;;;;;;5106513;27;51174;-57
2022/04/24 06:14:24;;;;;;;;;21.25;20.75;;;;;;;;5113392;27;51635;-57
2022/04/24 06:16:49;;;;;;;;;23.75;22.50;;;;;;;;5109036;27;51175;-57
2022/04/24 06:19:14;;;;;;;;;23.00;21.75;;;;;;;;5113183;27;50925;-57
2022/04/24 06:21:40;;;;;;;;;23.75;22.75;;;;;;;;5109415;27;51193;-56
2022/04/24 06:24:05;;;;;;;;;21.00;21.00;;;;;;;;5112039;27;50971;-56
2022/04/24 06:26:31;;;;;;;;;23.00;21.75;;;;;;;;5108960;27;50940;-55
2022/04/24 06:28:56;;;;;;;;;22.00;20.75;;;;;;;;5095149;27;51013;-55
2022/04/24 06:31:21;;;;;;;;;21.50;21.00;;;;;;;;5110936;27;50965;-55
2022/04/24 06:33:46;;;;;;;;;24.25;23.50;;;;;;;;5112447;27;51943;-55
2022/04/24 06:36:12;;;;;;;;;25.25;22.75;;;;;;;;5111463;27;51159;-56
2022/04/24 06:38:37;;;;;;;;;25.75;25.75;;;;;;;;5110385;27;53478;-54
2022/04/24 06:41:02;;;;;;;;;22.50;21.75;;;;;;;;5106633;27;51142;-56
2022/04/24 06:43:28;;;;;;;;;26.00;25.50;;;;;;;;5109139;27;52284;-55
2022/04/24 06:45:53;;;;;;;;;23.00;22.25;;;;;;;;5114080;27;51181;-57
2022/04/24 06:48:18;;;;;;;;;27.25;25.00;;;;;;;;5109045;27;51249;-56
2022/04/24 06:50:47;;;;;;;;;27.25;26.75;;;;;;;;5114862;27;51083;-56
2022/04/24 06:53:18;;;;;;;;;23.25;21.50;;;;;;;;5109179;27;51279;-57
2022/04/24 06:55:45;;;;;;;;;25.50;24.50;;;;;;;;5096929;27;51933;-55
2022/04/24 06:58:11;;;;;;;;;27.50;26.75;;;;;;;;5101929;27;51929;-55
2022/04/24 07:00:38;;;;;;;;;25.25;24.00;;;;;;;;5100393;27;51052;-57
2022/04/24 07:03:09;;;;;;;;;32.25;30.00;;;;;;;;5094165;27;52650;-57
2022/04/24 07:05:35;;;;;;;;;29.00;28.75;;;;;;;;5102155;27;51058;-57
2022/04/24 07:08:00;;;;;;;;;27.00;26.00;;;;;;;;5091957;27;51129;-56
2022/04/24 07:10:25;;;;;;;;;29.00;27.00;;;;;;;;5113964;27;50964;-57
2022/04/24 07:12:52;;;;;;;;;31.25;30.25;;;;;;;;5113826;27;51216;-57
2022/04/24 07:15:18;;;;;;;;;32.25;30.00;;;;;;;;5094513;27;51108;-56
2022/04/24 07:17:43;;;;;;;;;28.75;28.00;;;;;;;;5096130;27;51173;-57
2022/04/24 07:20:10;;;;;;;;;31.00;30.25;;;;;;;;5099963;27;51213;-57
2022/04/24 07:22:45;;;;;;;;;34.25;30.00;;;;;;;;5074609;27;52802;-56
2022/04/24 07:25:11;;;;;;;;;31.00;29.75;;;;;;;;5102515;27;51204;-54
2022/04/24 07:27:36;;;;;;;;;30.75;29.75;;;;;;;;5091384;27;51285;-56
2022/04/24 07:30:01;;;;;;;;;31.25;29.75;;;;;;;;5107910;27;51128;-55
2022/04/24 07:32:27;;;;;;;;;31.00;30.00;;;;;;;;5104750;27;51887;-56
2022/04/24 07:34:52;;;;;;;;;30.00;29.00;;;;;;;;5108146;27;51214;-58
2022/04/24 07:37:17;;;;;;;;;32.25;29.00;;;;;;;;5102667;27;53241;-57
2022/04/24 07:39:43;;;;;;;;;29.75;29.50;;;;;;;;5101553;27;51346;-59
2022/04/24 07:42:08;;;;;;;;;34.25;31.75;;;;;;;;5101484;27;51910;-57
2022/04/24 07:44:33;;;;;;;;;33.75;30.50;;;;;;;;5108158;27;51027;-56
2022/04/24 07:46:58;;;;;;;;;36.50;32.00;;;;;;;;5103973;27;51089;-58
2022/04/24 07:49:24;;;;;;;;;32.50;30.50;;;;;;;;5103963;27;51091;-57
2022/04/24 07:51:49;;;;;;;;;32.25;30.75;;;;;;;;5109275;27;51001;-57
2022/04/24 07:54:14;;;;;;;;;31.75;29.75;;;;;;;;5109613;27;51118;-58
2022/04/24 07:56:39;;;;;;;;;32.25;31.00;;;;;;;;5102790;27;51056;-56
2022/04/24 07:59:05;;;;;;;;;34.50;32.00;;;;;;;;5107421;27;51100;-57
2022/04/24 08:01:30;;;;;;;;;32.00;30.25;;;;;;;;5108366;27;52427;-57
2022/04/24 08:03:55;;;;;;;;;36.00;33.25;;;;;;;;5107257;27;51093;-57
2022/04/24 08:06:20;;;;;;;;;36.75;33.00;;;;;;;;5109352;27;50985;-56
2022/04/24 08:08:45;;;;;;;;;34.75;32.00;;;;;;;;5078748;27;51052;-56
2022/04/24 08:11:11;;;;;;;;;29.25;28.50;;;;;;;;5111174;27;51370;-56
2022/04/24 08:13:36;;;;;;;;;36.25;32.25;;;;;;;;5100957;27;51200;-57
2022/04/24 08:16:02;;;;;;;;;32.75;30.00;;;;;;;;5111014;27;51160;-56
2022/04/24 08:18:28;;;;;;;;;29.50;29.50;;;;;;;;5109342;27;51174;-58
2022/04/24 08:20:53;;;;;;;;;37.50;32.75;;;;;;;;5103611;27;52235;-57
2022/04/24 08:23:18;;;;;;;;;34.00;31.75;;;;;;;;5103960;27;51012;-57
2022/04/24 08:25:44;;;;;;;;;36.00;32.75;;;;;;;;5099892;27;51016;-58
2022/04/24 08:28:10;;;;;;;;;35.25;33.00;;;;;;;;5094564;27;51069;-58
2022/04/24 08:30:38;;;;;;;;;41.50;35.00;;;;;;;;5106454;27;52801;-57
2022/04/24 08:33:03;;;;;;;;;40.00;34.00;;;;;;;;5107048;27;51055;-55
2022/04/24 08:35:29;;;;;;;;;33.25;31.25;;;;;;;;5111017;27;51006;-57
2022/04/24 08:37:54;;;;;;;;;33.00;30.75;;;;;;;;5102431;27;51032;-57
2022/04/24 08:40:21;;;;;;;;;30.00;28.00;;;;;;;;5099503;27;52083;-57
2022/04/24 08:42:46;;;;;;;;;37.75;32.25;;;;;;;;5108783;27;51371;-56
2022/04/24 08:45:12;;;;;;;;;37.25;33.00;;;;;;;;5113248;27;51295;-55
2022/04/24 08:47:38;;;;;;;;;35.25;32.25;;;;;;;;5106480;27;51432;-57
2022/04/24 08:50:06;;;;;;;;;36.50;32.75;;;;;;;;5112553;27;51835;-58
2022/04/24 08:52:32;;;;;;;;;34.50;31.75;;;;;;;;5109548;27;51156;-55
2022/04/24 08:54:58;;;;;;;;;34.75;32.00;;;;;;;;5113263;27;50914;-56
2022/04/24 08:57:26;;;;;;;;;33.75;31.50;;;;;;;;5103188;27;51321;-56
2022/04/24 08:59:52;;;;;;;;;35.00;32.00;;;;;;;;5108279;27;51873;-56
2022/04/24 09:02:17;;;;;;;;;35.00;32.25;;;;;;;;5106541;27;51149;-58
2022/04/24 09:04:42;;;;;;;;;28.50;26.50;;;;;;;;5109751;27;51169;-56
2022/04/24 09:07:09;;;;;;;;;36.00;33.25;;;;;;;;5109674;27;51304;-57
2022/04/24 09:09:44;;;;;;;;;34.50;30.25;;;;;;;;5107180;27;51721;-57
2022/04/24 09:12:10;;;;;;;;;33.50;31.00;;;;;;;;5103552;27;51161;-58
2022/04/24 09:14:36;;;;;;;;;36.50;33.00;;;;;;;;5107324;27;51090;-57
2022/04/24 09:17:05;;;;;;;;;34.50;32.00;;;;;;;;5088413;27;51204;-57
2022/04/24 09:19:31;;;;;;;;;37.00;32.25;;;;;;;;5101579;27;51682;-57
2022/04/24 09:22:09;;;;;;;;;27.75;26.50;;;;;;;;5104036;27;51200;-56
2022/04/24 09:24:44;;;;;;;;;27.00;24.50;;;;;;;;5111021;27;51086;-56
2022/04/24 09:27:10;;;;;;;;;31.25;30.25;;;;;;;;5078512;27;51345;-57
2022/04/24 09:29:37;;;;;;;;;34.00;30.25;;;;;;;;5090202;27;52110;-58
2022/04/24 09:32:08;;;;;;;;;34.25;32.25;;;;;;;;5089776;27;50990;-56
2022/04/24 09:34:35;;;;;;;;;33.25;30.50;;;;;;;;5109665;27;50977;-57
2022/04/24 09:37:02;;;;;;;;;37.00;32.25;;;;;;;;5105237;27;51280;-58
2022/04/24 09:39:32;;;;;;;;;36.50;32.75;;;;;;;;5074762;27;52028;-59
2022/04/24 09:42:03;;;;;;;;;31.75;30.75;;;;;;;;5107337;27;51142;-56
2022/04/24 09:44:35;;;;;;;;;32.75;30.75;;;;;;;;5110579;27;51237;-56
2022/04/24 09:47:00;;;;;;;;;36.75;33.25;;;;;;;;5103160;27;51002;-58
2022/04/24 09:49:26;;;;;;;;;34.00;32.00;;;;;;;;5110663;27;51652;-54
2022/04/24 09:51:51;;;;;;;;;33.25;32.00;;;;;;;;5101108;27;51472;-56
2022/04/24 09:54:17;;;;;;;;;35.25;32.25;;;;;;;;5098478;27;50949;-57
2022/04/24 09:56:43;;;;;;;;;35.75;32.00;;;;;;;;5088210;27;51044;-58
2022/04/24 09:59:09;;;;;;;;;33.00;31.25;;;;;;;;5096436;27;52032;-58
2022/04/24 10:01:35;;;;;;;;;35.75;32.75;;;;;;;;5105525;27;51633;-59
2022/04/24 10:04:01;;;;;;;;;32.75;30.50;;;;;;;;5107502;27;51128;-57
2022/04/24 10:06:26;;;;;;;;;35.00;31.00;;;;;;;;5078731;27;51711;-57
2022/04/24 10:08:52;;;;;;;;;31.50;30.50;;;;;;;;5100489;27;51994;-56
2022/04/24 10:11:18;;;;;;;;;34.75;31.75;;;;;;;;5107378;27;52197;-61
2022/04/24 10:13:48;;;;;;;;;33.75;31.25;;;;;;;;5104877;27;51429;-59
2022/04/24 10:16:26;;;;;;;;;32.75;31.00;;;;;;;;5111358;27;51150;-60
2022/04/24 10:19:00;;;;;;;;;35.75;32.75;;;;;;;;5111317;27;52438;-57
2022/04/24 10:21:28;;;;;;;;;30.25;30.00;;;;;;;;5087493;27;51185;-56
2022/04/24 10:23:53;;;;;;;;;33.00;30.25;;;;;;;;5103246;27;52154;-57
2022/04/24 10:26:20;;;;;;;;;35.25;32.00;;;;;;;;5106597;27;51234;-57
2022/04/24 10:28:48;;;;;;;;;34.00;32.00;;;;;;;;5106868;27;51965;-57
2022/04/24 10:31:14;;;;;;;;;31.75;30.50;;;;;;;;5105420;27;51185;-57
2022/04/24 10:33:51;;;;;;;;;34.25;30.75;;;;;;;;5104877;27;51166;-57
2022/04/24 10:36:17;;;;;;;;;31.25;30.00;;;;;;;;5106633;27;51041;-57
2022/04/24 10:38:47;;;;;;;;;30.50;30.25;;;;;;;;5106618;27;53531;-58
2022/04/24 10:41:25;;;;;;;;;27.75;26.25;;;;;;;;5107340;27;51038;-58
2022/04/24 10:43:56;;;;;;;;;32.75;31.00;;;;;;;;5109725;27;51090;-60
2022/04/24 10:46:28;;;;;;;;;36.00;32.75;;;;;;;;5107851;27;51226;-59
2022/04/24 10:48:54;;;;;;;;;30.00;29.75;;;;;;;;5109382;27;51930;-58
2022/04/24 10:51:29;;;;;;;;;36.00;32.75;;;;;;;;5112380;27;51178;-59
2022/04/24 10:53:59;;;;;;;;;31.75;30.00;;;;;;;;5110820;27;51124;-60
2022/04/24 10:56:24;;;;;;;;;31.00;29.25;;;;;;;;5107447;27;51249;-59
2022/04/24 10:58:50;;;;;;;;;33.00;31.25;;;;;;;;5104199;27;51260;-58
2022/04/24 11:01:16;;;;;;;;;31.75;30.00;;;;;;;;5111533;27;51076;-59
2022/04/24 11:03:42;;;;;;;;;31.75;30.00;;;;;;;;5097148;27;51261;-59
2022/04/24 11:06:23;;;;;;;;;27.50;27.50;;;;;;;;5102578;27;51081;-59
2022/04/24 11:08:49;;;;;;;;;28.00;26.00;;;;;;;;5104396;27;51959;-59
2022/04/24 11:11:15;;;;;;;;;31.50;30.00;;;;;;;;5100978;27;51717;-59
2022/04/24 11:13:41;;;;;;;;;30.25;29.00;;;;;;;;5097941;27;51470;-59
2022/04/24 11:16:06;;;;;;;;;30.25;29.50;;;;;;;;5085901;27;51161;-59
2022/04/24 11:18:32;;;;;;;;;32.75;30.75;;;;;;;;5098794;27;52067;-59
2022/04/24 11:20:58;;;;;;;;;25.00;25.00;;;;;;;;5099547;27;51538;-59
2022/04/24 11:23:24;;;;;;;;;28.50;28.00;;;;;;;;5093371;27;52491;-59
2022/04/24 11:25:52;;;;;;;;;29.75;29.00;;;;;;;;5106710;27;51760;-59
2022/04/24 11:28:17;;;;;;;;;29.25;25.00;;;;;;;;5108810;27;52484;-58
2022/04/24 11:30:42;;;;;;;;;28.75;26.25;;;;;;;;5109396;27;52564;-59
2022/04/24 11:33:08;;;;;;;;;25.25;24.50;;;;;;;;5088404;27;51118;-58
2022/04/24 11:35:38;;;;;;;;;25.00;25.00;;;;;;;;5098819;27;52648;-59
2022/04/24 11:38:04;;;;;;;;;29.50;29.00;;;;;;;;5108153;27;51272;-60
2022/04/24 11:40:30;;;;;;;;;28.25;27.00;;;;;;;;5083768;27;53124;-58
2022/04/24 11:43:05;;;;;;;;;27.00;26.00;;;;;;;;5099842;27;51215;-60
2022/04/24 11:51:10;;;;;;;;;26.00;24.75;;;;;;;;5099775;27;51335;-59
2022/04/24 11:53:35;;;;;;;;;29.25;27.75;;;;;;;;5100693;27;51181;-60
2022/04/24 11:56:01;;;;;;;;;23.00;21.25;;;;;;;;5084394;27;51486;-59
2022/04/24 11:58:26;;;;;;;;;25.25;24.25;;;;;;;;5115822;27;51710;-59
2022/04/24 12:00:52;;;;;;;;;26.00;25.25;;;;;;;;5112499;27;50899;-59
2022/04/24 12:03:17;;;;;;;;;23.00;23.00;;;;;;;;5109239;27;51164;-59
2022/04/24 12:05:43;;;;;;;;;26.50;25.50;;;;;;;;5105215;27;51433;-59
2022/04/24 12:08:11;;;;;;;;;29.00;26.50;;;;;;;;5104439;27;52076;-59
2022/04/24 12:10:44;;;;;;;;;24.25;23.00;;;;;;;;5117650;27;51161;-57
2022/04/24 12:13:09;;;;;;;;;26.25;24.75;;;;;;;;5088424;27;51434;-57
2022/04/24 12:15:34;;;;;;;;;24.25;24.25;;;;;;;;5120625;27;51099;-58
2022/04/24 12:18:00;;;;;;;;;23.50;23.00;;;;;;;;5113445;27;52465;-58
2022/04/24 12:20:35;;;;;;;;;22.75;22.25;;;;;;;;5112446;27;50940;-56
2022/04/24 12:23:11;;;;;;;;;23.00;22.50;;;;;;;;5095614;27;51205;-56
2022/04/24 12:25:45;;;;;;;;;24.00;22.50;;;;;;;;5112867;27;51098;-58
2022/04/24 12:28:10;;;;;;;;;24.00;23.25;;;;;;;;5114147;27;51704;-56
2022/04/24 12:30:35;;;;;;;;;19.00;19.00;;;;;;;;5111174;27;51136;-56
2022/04/24 12:33:08;;;;;;;;;24.25;22.25;;;;;;;;5114614;27;51019;-58
2022/04/24 12:35:34;;;;;;;;;22.50;22.00;;;;;;;;5111319;27;51162;-56
2022/04/24 12:37:59;;;;;;;;;28.75;27.25;;;;;;;;5113925;27;53301;-57
2022/04/24 12:40:25;;;;;;;;;25.75;24.75;;;;;;;;5090989;27;51358;-56
2022/04/24 12:42:54;;;;;;;;;20.75;20.75;;;;;;;;5114430;27;51126;-58
2022/04/24 12:45:20;;;;;;;;;22.50;21.00;;;;;;;;5095171;27;51354;-58
2022/04/24 12:47:46;;;;;;;;;25.50;23.25;;;;;;;;5111479;27;52044;-57
2022/04/24 12:50:12;;;;;;;;;20.00;20.00;;;;;;;;5103116;27;51191;-55
2022/04/24 12:52:37;;;;;;;;;23.50;22.75;;;;;;;;5109495;27;51121;-59
2022/04/24 12:55:02;;;;;;;;;21.50;20.50;;;;;;;;5107333;27;51237;-61
2022/04/24 12:57:28;;;;;;;;;21.75;21.25;;;;;;;;5103004;27;52037;-59
2022/04/24 12:59:53;;;;;;;;;20.00;20.00;;;;;;;;5101840;27;51169;-57
2022/04/24 13:02:20;;;;;;;;;20.25;20.00;;;;;;;;5100375;27;51369;-57
2022/04/24 13:04:46;;;;;;;;;25.25;22.50;;;;;;;;5108375;27;51168;-56
2022/04/24 13:07:11;;;;;;;;;21.00;20.50;;;;;;;;5106739;27;51232;-58
2022/04/24 13:09:36;;;;;;;;;18.50;18.50;;;;;;;;5113446;27;51086;-56
2022/04/24 13:12:02;;;;;;;;;24.00;22.00;;;;;;;;5101706;27;51114;-57
2022/04/24 13:14:27;;;;;;;;;22.25;21.50;;;;;;;;5108378;27;51122;-56
2022/04/24 13:19:37;;;;;;;;;23.25;22.50;;;;;;;;5104112;27;51160;-59
2022/04/24 13:22:02;;;;;;;;;17.75;17.00;;;;;;;;5093647;27;51137;-57
2022/04/24 13:24:28;;;;;;;;;22.25;21.75;;;;;;;;5108630;27;51099;-57
2022/04/24 13:26:53;;;;;;;;;23.75;22.25;;;;;;;;5093468;27;52580;-57
2022/04/24 13:29:20;;;;;;;;;21.00;21.00;;;;;;;;5097237;27;51050;-56
2022/04/24 13:31:47;;;;;;;;;20.75;20.75;;;;;;;;5105141;27;50977;-55
2022/04/24 13:34:13;;;;;;;;;23.75;23.00;;;;;;;;5101524;27;50882;-56
2022/04/24 13:36:38;;;;;;;;;22.50;22.25;;;;;;;;5110295;27;51654;-56
2022/04/24 13:39:05;;;;;;;;;19.25;18.25;;;;;;;;5106424;27;51075;-57
2022/04/24 13:41:31;;;;;;;;;18.00;17.75;;;;;;;;5104351;27;51024;-58
2022/04/24 13:43:59;;;;;;;;;19.25;19.25;;;;;;;;5096701;27;51030;-55
2022/04/24 13:46:25;;;;;;;;;20.00;19.50;;;;;;;;5099470;27;52133;-57
2022/04/24 13:48:50;;;;;;;;;18.25;17.25;;;;;;;;5108839;27;51011;-57
2022/04/24 13:51:17;;;;;;;;;21.75;19.00;;;;;;;;5108999;27;50962;-55
2022/04/24 13:53:45;;;;;;;;;18.25;17.75;;;;;;;;5111226;27;50910;-58
2022/04/24 13:56:11;;;;;;;;;18.50;18.25;;;;;;;;5095461;27;52696;-59
2022/04/24 13:58:36;;;;;;;;;22.75;20.50;;;;;;;;5099684;27;51144;-58
2022/04/24 14:01:01;;;;;;;;;24.50;22.50;;;;;;;;5104624;27;51439;-57
2022/04/24 14:03:26;;;;;;;;;22.25;21.50;;;;;;;;5105154;27;51172;-56
2022/04/24 14:05:52;;;;;;;;;21.50;20.75;;;;;;;;5109517;27;51773;-57
2022/04/24 14:08:19;;;;;;;;;21.00;20.00;;;;;;;;5083910;27;51049;-55
2022/04/24 14:10:45;;;;;;;;;21.50;18.75;;;;;;;;5111771;27;51093;-59
2022/04/24 14:13:10;;;;;;;;;26.00;23.00;;;;;;;;5112116;27;50928;-57
2022/04/24 14:15:36;;;;;;;;;21.75;21.50;;;;;;;;5093749;27;52740;-57
2022/04/24 14:18:01;;;;;;;;;19.75;19.25;;;;;;;;5076605;27;51032;-56